Time;durP1;ratioP1;P1;durP2;ratioP2;P2;SDS_P1;SDS_P2;PMS_P1;PMS_P2;Temp;Humidity;BMP_temperature;BMP_pressure;BME280_temperature;BME280_humidity;BME280_pressure;Samples;Min_cycle;Max_cycle;Signal;HPM_P1;HPM_P2
2022/08/26 00:00:46;;;;;;;13.70;10.02;;;16.60;99.90;;;;;;5067875;28;20053;-54
2022/08/26 00:03:13;;;;;;;13.57;9.55;;;16.60;99.90;;;;;;5063453;28;20095;-53
2022/08/26 00:05:39;;;;;;;11.38;9.48;;;16.60;99.90;;;;;;5055594;28;20044;-56
2022/08/26 00:08:07;;;;;;;12.13;10.23;;;16.50;99.90;;;;;;5055565;28;20120;-54
2022/08/26 00:10:38;;;;;;;11.50;10.27;;;16.50;99.90;;;;;;5057371;28;20040;-54
2022/08/26 00:13:05;;;;;;;11.43;10.10;;;16.50;99.90;;;;;;5055481;28;20033;-56
2022/08/26 00:15:34;;;;;;;11.25;10.05;;;16.40;99.90;;;;;;5054656;28;20064;-57
2022/08/26 00:18:01;;;;;;;12.65;9.90;;;16.40;99.90;;;;;;5055786;28;20106;-56
2022/08/26 00:20:28;;;;;;;12.93;10.95;;;16.40;99.90;;;;;;5055596;28;20072;-57
2022/08/26 00:22:54;;;;;;;12.27;10.18;;;16.40;99.90;;;;;;5058689;28;20041;-55
2022/08/26 00:25:21;;;;;;;13.88;9.35;;;16.40;99.90;;;;;;5054007;28;20391;-57
2022/08/26 00:27:48;;;;;;;10.80;9.70;;;16.40;99.90;;;;;;5074959;28;20037;-54
2022/08/26 00:30:17;;;;;;;12.30;10.52;;;16.40;99.90;;;;;;5066627;28;20040;-54
2022/08/26 00:32:49;;;;;;;11.70;10.13;;;16.40;99.90;;;;;;5057147;28;20033;-56
2022/08/26 00:35:17;;;;;;;12.75;9.75;;;16.30;99.90;;;;;;5074497;28;20040;-54
2022/08/26 00:37:45;;;;;;;13.93;10.20;;;16.30;99.90;;;;;;5074414;28;20510;-53
2022/08/26 00:40:12;;;;;;;12.02;10.20;;;16.20;99.90;;;;;;5074428;28;20521;-56
2022/08/26 00:42:39;;;;;;;11.27;9.25;;;16.20;99.90;;;;;;5066214;28;20041;-54
2022/08/26 00:45:11;;;;;;;14.13;9.15;;;16.20;99.90;;;;;;5054816;28;20037;-53
2022/08/26 00:47:38;;;;;;;9.77;8.80;;;16.20;99.90;;;;;;5074390;28;20048;-52
2022/08/26 00:50:05;;;;;;;10.27;9.18;;;16.10;99.90;;;;;;5058060;28;20052;-52
2022/08/26 00:52:32;;;;;;;12.05;9.60;;;16.10;99.90;;;;;;5056448;28;20384;-52
2022/08/26 00:54:59;;;;;;;9.95;8.75;;;16.10;99.90;;;;;;5055206;28;20063;-53
2022/08/26 00:57:25;;;;;;;11.55;10.35;;;16.20;99.90;;;;;;5057499;28;20044;-52
2022/08/26 00:59:53;;;;;;;11.43;10.23;;;16.20;99.90;;;;;;5063619;28;20072;-55
2022/08/26 01:02:19;;;;;;;15.25;11.15;;;16.20;99.90;;;;;;5054656;28;20049;-56
2022/08/26 01:04:47;;;;;;;12.77;11.30;;;16.20;99.90;;;;;;5054798;28;20049;-53
2022/08/26 01:07:20;;;;;;;12.55;11.13;;;16.20;99.90;;;;;;5067678;28;20047;-54
2022/08/26 01:09:47;;;;;;;13.23;11.80;;;16.20;99.90;;;;;;5069356;28;20040;-53
2022/08/26 01:12:14;;;;;;;15.82;12.68;;;16.20;99.90;;;;;;5073853;28;20040;-54
2022/08/26 01:14:47;;;;;;;15.30;12.38;;;16.20;99.90;;;;;;5059297;28;20071;-54
2022/08/26 01:17:14;;;;;;;16.10;13.25;;;16.20;99.90;;;;;;5068440;28;20047;-56
2022/08/26 01:19:41;;;;;;;16.02;14.23;;;16.20;99.90;;;;;;5065550;28;20048;-53
2022/08/26 01:22:09;;;;;;;15.90;14.30;;;16.10;99.90;;;;;;5054415;28;20033;-53
2022/08/26 01:24:37;;;;;;;16.88;15.10;;;16.10;99.90;;;;;;5054469;28;20029;-55
2022/08/26 01:27:04;;;;;;;16.20;14.50;;;16.00;99.90;;;;;;5059119;28;20066;-55
2022/08/26 01:29:30;;;;;;;15.48;13.93;;;16.00;99.90;;;;;;5061813;28;20044;-52
2022/08/26 01:31:57;;;;;;;17.23;15.45;;;16.00;99.90;;;;;;5059152;28;20102;-55
2022/08/26 01:34:24;;;;;;;16.65;14.85;;;16.00;99.90;;;;;;5073883;28;20074;-53
2022/08/26 01:36:51;;;;;;;16.52;14.93;;;16.00;99.90;;;;;;5053590;28;20040;-53
2022/08/26 01:39:18;;;;;;;14.18;12.80;;;16.00;99.90;;;;;;5053055;28;20041;-57
2022/08/26 01:41:45;;;;;;;15.65;14.05;;;15.90;99.90;;;;;;5058966;28;20119;-54
2022/08/26 01:44:12;;;;;;;16.38;14.65;;;15.90;99.90;;;;;;5066298;28;20045;-55
2022/08/26 01:46:38;;;;;;;16.38;14.68;;;15.90;99.90;;;;;;5054113;28;20041;-54
2022/08/26 01:49:05;;;;;;;16.48;14.18;;;15.90;99.90;;;;;;5056905;28;20559;-54
2022/08/26 01:51:35;;;;;;;15.75;14.15;;;15.90;99.90;;;;;;5054214;28;20036;-56
2022/08/26 01:54:03;;;;;;;16.13;14.27;;;15.90;99.90;;;;;;5053866;28;20051;-53
2022/08/26 01:56:30;;;;;;;15.63;13.90;;;15.80;99.90;;;;;;5053518;28;20037;-52
2022/08/26 01:59:02;;;;;;;15.32;12.77;;;15.80;99.90;;;;;;5055506;28;20048;-54
2022/08/26 02:01:29;;;;;;;14.60;13.00;;;15.70;99.90;;;;;;5052554;28;20032;-52
2022/08/26 02:03:56;;;;;;;14.73;13.23;;;15.70;99.90;;;;;;5053472;28;20041;-54
2022/08/26 02:06:24;;;;;;;15.48;13.90;;;15.70;99.90;;;;;;5054214;28;20048;-57
2022/08/26 02:08:51;;;;;;;14.88;13.40;;;15.70;99.90;;;;;;5063456;28;20041;-55
2022/08/26 02:11:18;;;;;;;14.63;13.07;;;15.70;99.90;;;;;;5059126;28;20062;-51
2022/08/26 02:13:45;;;;;;;15.45;13.85;;;15.60;99.90;;;;;;5053153;28;20549;-53
2022/08/26 02:16:12;;;;;;;15.57;14.02;;;15.60;99.90;;;;;;5053268;28;20464;-55
2022/08/26 02:18:38;;;;;;;17.55;12.40;;;15.60;99.90;;;;;;5058755;28;20102;-56
2022/08/26 02:21:05;;;;;;;12.73;11.43;;;15.50;99.90;;;;;;5054049;28;20049;-55
2022/08/26 02:23:32;;;;;;;12.27;10.48;;;15.50;99.90;;;;;;5052994;28;20491;-57
2022/08/26 02:25:59;;;;;;;11.15;10.05;;;15.50;99.90;;;;;;5052317;28;20137;-55
2022/08/26 02:28:27;;;;;;;15.27;10.57;;;15.50;99.90;;;;;;5053493;28;20041;-54
2022/08/26 02:30:54;;;;;;;10.85;9.75;;;15.40;99.90;;;;;;5055536;28;20084;-56
2022/08/26 02:33:21;;;;;;;12.02;10.05;;;15.30;99.90;;;;;;5053153;28;20110;-53
2022/08/26 02:35:47;;;;;;;10.68;9.07;;;15.30;99.90;;;;;;5052931;28;20049;-51
2022/08/26 02:38:14;;;;;;;12.35;9.45;;;15.30;99.90;;;;;;5059318;28;20146;-54
2022/08/26 02:40:42;;;;;;;11.23;9.18;;;15.30;99.90;;;;;;5072344;28;20044;-55
2022/08/26 02:43:11;;;;;;;10.57;9.48;;;15.20;99.90;;;;;;5071702;28;20048;-54
2022/08/26 02:45:39;;;;;;;9.88;8.88;;;15.20;99.90;;;;;;5059326;28;20065;-51
2022/08/26 02:48:05;;;;;;;10.75;9.65;;;15.20;99.90;;;;;;5066144;28;20094;-53
2022/08/26 02:50:33;;;;;;;10.48;9.40;;;15.10;99.90;;;;;;5056710;28;20155;-55
2022/08/26 02:53:00;;;;;;;10.57;9.52;;;15.10;99.90;;;;;;5060176;28;20048;-54
2022/08/26 02:55:28;;;;;;;10.80;9.70;;;15.10;99.90;;;;;;5059119;28;20441;-54
2022/08/26 02:57:54;;;;;;;10.73;9.25;;;15.00;99.90;;;;;;5057166;28;20048;-56
2022/08/26 03:00:21;;;;;;;11.52;10.27;;;15.00;99.90;;;;;;5068188;28;20052;-52
2022/08/26 03:02:49;;;;;;;12.73;9.27;;;15.00;99.90;;;;;;5076085;28;20131;-53
2022/08/26 03:05:16;;;;;;;10.73;9.73;;;14.90;99.90;;;;;;5067539;28;20083;-52
2022/08/26 03:07:43;;;;;;;10.65;9.55;;;14.90;99.90;;;;;;5067300;28;20091;-56
2022/08/26 03:10:12;;;;;;;11.23;9.48;;;14.90;99.90;;;;;;5056846;28;20033;-56
2022/08/26 03:12:40;;;;;;;13.63;9.55;;;14.90;99.90;;;;;;5056954;28;20040;-56
2022/08/26 03:15:07;;;;;;;9.90;8.77;;;14.90;99.90;;;;;;5056353;28;20044;-55
2022/08/26 03:17:43;;;;;;;10.95;9.85;;;14.80;99.90;;;;;;5059121;28;20076;-54
2022/08/26 03:20:10;;;;;;;13.60;12.27;;;14.70;99.90;;;;;;5074265;28;20040;-52
2022/08/26 03:22:39;;;;;;;13.57;11.57;;;14.70;99.90;;;;;;5063229;28;20048;-56
2022/08/26 03:25:05;;;;;;;12.73;10.98;;;14.70;99.90;;;;;;5056489;28;20439;-49
2022/08/26 03:27:32;;;;;;;13.57;12.05;;;14.60;99.90;;;;;;5060452;28;20545;-51
2022/08/26 03:32:45;;;;;;;12.23;10.45;;;14.60;99.90;;;;;;5075656;28;20055;-54
2022/08/26 03:35:12;;;;;;;11.70;10.50;;;14.60;99.90;;;;;;5075544;28;20037;-52
2022/08/26 03:37:39;;;;;;;11.50;10.40;;;14.60;99.90;;;;;;5074393;28;20044;-51
2022/08/26 03:40:06;;;;;;;11.82;10.70;;;14.50;99.90;;;;;;5054808;28;20041;-55
2022/08/26 03:42:33;;;;;;;12.20;10.90;;;14.50;99.90;;;;;;5063200;28;20036;-53
2022/08/26 03:45:01;;;;;;;13.32;10.63;;;14.50;99.90;;;;;;5059556;28;20515;-53
2022/08/26 03:47:28;;;;;;;17.13;10.98;;;14.50;99.90;;;;;;5055109;28;20086;-53
2022/08/26 03:49:54;;;;;;;14.52;11.60;;;14.50;99.90;;;;;;5055816;28;20037;-55
2022/08/26 03:52:21;;;;;;;12.70;11.40;;;14.40;99.90;;;;;;5055531;28;20049;-55
2022/08/26 03:54:48;;;;;;;14.73;10.55;;;14.40;99.90;;;;;;5060409;28;20163;-55
2022/08/26 03:57:15;;;;;;;15.00;11.13;;;14.40;99.90;;;;;;5063175;28;20036;-51
2022/08/26 03:59:42;;;;;;;11.07;9.88;;;14.40;99.90;;;;;;5065940;28;20053;-50
2022/08/26 04:02:09;;;;;;;11.65;10.48;;;14.30;99.90;;;;;;5060325;28;20047;-53
2022/08/26 04:04:37;;;;;;;13.45;10.85;;;14.30;99.90;;;;;;5068169;28;20475;-51
2022/08/26 04:07:04;;;;;;;11.10;9.93;;;14.30;99.90;;;;;;5075464;28;20037;-59
2022/08/26 04:09:30;;;;;;;11.13;10.02;;;14.30;99.90;;;;;;5062973;28;20036;-56
2022/08/26 04:12:01;;;;;;;11.02;9.82;;;14.30;99.90;;;;;;5059345;28;20457;-54
2022/08/26 04:14:29;;;;;;;10.77;9.57;;;14.20;99.90;;;;;;5067582;28;20051;-54
2022/08/26 04:16:57;;;;;;;11.13;9.68;;;14.20;99.90;;;;;;5075275;28;20418;-53
2022/08/26 04:19:24;;;;;;;11.18;10.18;;;14.20;99.90;;;;;;5074951;28;20093;-55
2022/08/26 04:21:54;;;;;;;13.43;12.05;;;14.20;99.90;;;;;;5068491;28;20487;-55
2022/08/26 04:24:20;;;;;;;14.15;12.23;;;14.20;99.90;;;;;;5058320;28;20044;-52
2022/08/26 04:26:47;;;;;;;14.07;12.30;;;14.10;99.90;;;;;;5056441;28;20392;-57
2022/08/26 04:29:14;;;;;;;13.95;12.55;;;14.10;99.90;;;;;;5055687;28;20064;-56
2022/08/26 04:31:41;;;;;;;15.18;12.77;;;14.10;99.90;;;;;;5055604;28;20059;-53
2022/08/26 04:34:08;;;;;;;13.60;12.10;;;14.10;99.90;;;;;;5073260;28;20119;-54
2022/08/26 04:36:36;;;;;;;13.43;11.98;;;14.10;99.90;;;;;;5061978;28;20071;-52
2022/08/26 04:39:03;;;;;;;15.52;13.27;;;14.00;99.90;;;;;;5066460;28;20090;-53
2022/08/26 04:41:30;;;;;;;15.57;13.93;;;14.00;99.90;;;;;;5070898;28;20098;-55
2022/08/26 04:43:57;;;;;;;14.80;13.15;;;14.00;99.90;;;;;;5064587;28;20510;-55
2022/08/26 04:46:24;;;;;;;14.93;12.50;;;14.00;99.90;;;;;;5059704;28;20040;-56
2022/08/26 04:48:51;;;;;;;10.93;9.82;;;13.90;99.90;;;;;;5055412;28;20033;-55
2022/08/26 04:51:18;;;;;;;11.02;9.93;;;13.90;99.90;;;;;;5055110;28;20041;-54
2022/08/26 04:53:44;;;;;;;10.95;9.68;;;14.00;99.90;;;;;;5060838;28;20032;-57
2022/08/26 04:56:11;;;;;;;11.48;9.50;;;13.90;99.90;;;;;;5062396;28;20041;-56
2022/08/26 04:58:38;;;;;;;13.40;10.88;;;13.90;99.90;;;;;;5054955;28;20045;-55
2022/08/26 05:01:05;;;;;;;12.20;10.95;;;13.90;99.90;;;;;;5064562;28;20411;-56
2022/08/26 05:03:31;;;;;;;14.15;11.48;;;13.90;99.90;;;;;;5061786;28;20091;-51
2022/08/26 05:05:58;;;;;;;15.05;12.63;;;13.90;99.90;;;;;;5058372;28;20086;-53
2022/08/26 05:08:25;;;;;;;14.38;12.68;;;13.90;99.90;;;;;;5068419;28;20037;-53
2022/08/26 05:10:55;;;;;;;10.32;9.30;;;13.90;99.90;;;;;;5055783;28;20048;-55
2022/08/26 05:13:23;;;;;;;11.68;10.48;;;13.80;99.90;;;;;;5053852;28;20033;-50
2022/08/26 05:15:50;;;;;;;14.20;11.02;;;13.80;99.90;;;;;;5054726;28;20037;-54
2022/08/26 05:18:17;;;;;;;12.43;10.23;;;13.80;99.90;;;;;;5058396;28;20399;-57
2022/08/26 05:20:45;;;;;;;11.85;10.10;;;13.80;99.90;;;;;;5064149;28;20037;-52
2022/08/26 05:23:12;;;;;;;12.02;10.85;;;13.90;99.90;;;;;;5073394;28;20041;-54
2022/08/26 05:25:40;;;;;;;12.25;10.73;;;13.90;99.90;;;;;;5073365;28;20434;-54
2022/08/26 05:28:07;;;;;;;11.70;10.50;;;13.90;99.90;;;;;;5061693;28;20395;-54
2022/08/26 05:30:34;;;;;;;12.38;10.93;;;14.00;99.90;;;;;;5059321;28;20041;-56
2022/08/26 05:33:01;;;;;;;13.38;10.73;;;14.00;99.90;;;;;;5052776;28;20041;-53
2022/08/26 05:35:30;;;;;;;15.25;11.52;;;14.00;99.90;;;;;;5052548;28;20048;-52
2022/08/26 05:37:59;;;;;;;18.80;13.63;;;14.10;99.90;;;;;;5054240;28;20112;-54
2022/08/26 05:40:26;;;;;;;17.50;13.95;;;14.20;99.90;;;;;;5053264;28;20119;-54
2022/08/26 05:42:52;;;;;;;20.27;13.38;;;14.20;99.90;;;;;;5064154;28;21021;-55
2022/08/26 05:45:21;;;;;;;18.23;14.20;;;14.20;99.90;;;;;;5063393;28;20044;-53
2022/08/26 05:47:48;;;;;;;17.95;13.85;;;14.20;99.90;;;;;;5072280;28;20110;-52
2022/08/26 05:50:20;;;;;;;22.17;13.50;;;14.30;99.90;;;;;;5059462;28;20495;-53
2022/08/26 05:52:48;;;;;;;18.40;14.02;;;14.30;99.90;;;;;;5052229;28;20098;-53
2022/08/26 05:55:15;;;;;;;17.00;12.75;;;14.40;99.90;;;;;;5053970;28;20170;-58
2022/08/26 05:57:43;;;;;;;21.20;12.90;;;14.30;99.90;;;;;;5063139;28;20380;-55
2022/08/26 06:00:11;;;;;;;27.73;11.77;;;14.30;99.90;;;;;;5067247;28;20045;-56
2022/08/26 06:02:38;;;;;;;22.90;10.75;;;14.40;99.90;;;;;;5064023;28;20502;-53
2022/08/26 06:05:05;;;;;;;15.55;11.48;;;14.40;99.90;;;;;;5063926;28;20407;-57
2022/08/26 06:10:18;;;;;;;17.50;11.80;;;14.40;99.90;;;;;;5057598;28;20044;-52
2022/08/26 06:12:58;;;;;;;12.52;11.20;;;14.50;99.90;;;;;;5062673;28;20049;-57
2022/08/26 06:15:34;;;;;;;15.60;10.63;;;14.50;99.90;;;;;;5053689;28;20047;-55
2022/08/26 06:18:07;;;;;;;12.35;10.77;;;14.50;99.90;;;;;;5056172;28;20045;-55
2022/08/26 06:20:35;;;;;;;18.73;12.68;;;14.50;99.90;;;;;;5059947;28;20446;-52
2022/08/26 06:25:49;;;;;;;13.40;11.80;;;14.60;99.90;;;;;;5064647;28;20057;-51
2022/08/26 06:28:16;;;;;;;12.57;11.25;;;14.60;99.90;;;;;;5069378;28;20044;-55
2022/08/26 06:30:43;;;;;;;15.95;11.90;;;14.70;99.90;;;;;;5060412;28;20044;-56
2022/08/26 06:33:10;;;;;;;20.85;13.02;;;14.70;99.90;;;;;;5057299;28;20045;-55
2022/08/26 06:35:37;;;;;;;14.73;12.90;;;14.70;99.90;;;;;;5057303;28;20059;-53
2022/08/26 06:38:04;;;;;;;15.10;13.15;;;14.70;99.90;;;;;;5062513;28;20407;-54
2022/08/26 06:40:31;;;;;;;13.75;12.40;;;14.70;99.90;;;;;;5059545;28;20041;-55
2022/08/26 06:42:58;;;;;;;14.05;12.65;;;14.70;99.90;;;;;;5062199;28;20033;-54
2022/08/26 06:45:25;;;;;;;14.13;12.38;;;14.70;99.90;;;;;;5059071;28;20036;-54
2022/08/26 06:47:51;;;;;;;15.18;13.38;;;14.70;99.90;;;;;;5062695;28;20509;-55
2022/08/26 06:50:18;;;;;;;14.55;13.05;;;14.70;99.90;;;;;;5069366;28;20037;-55
2022/08/26 06:52:46;;;;;;;14.45;13.05;;;14.70;99.90;;;;;;5066908;28;20047;-56
2022/08/26 06:55:14;;;;;;;13.63;12.32;;;14.80;99.90;;;;;;5059508;28;20044;-55
2022/08/26 06:57:40;;;;;;;13.32;12.10;;;14.80;99.90;;;;;;5055781;28;20086;-50
2022/08/26 07:00:10;;;;;;;13.63;12.23;;;14.80;99.90;;;;;;5069108;28;20434;-54
2022/08/26 07:02:38;;;;;;;13.35;12.18;;;14.90;99.90;;;;;;5067269;28;20533;-55
2022/08/26 07:05:05;;;;;;;13.50;12.30;;;14.90;99.90;;;;;;5050979;28;20041;-55
2022/08/26 07:07:33;;;;;;;16.58;13.40;;;15.00;99.90;;;;;;5054884;28;20033;-53
2022/08/26 07:10:00;;;;;;;13.82;12.43;;;15.00;99.90;;;;;;5065989;28;20132;-52
2022/08/26 07:12:27;;;;;;;13.10;11.82;;;15.00;99.90;;;;;;5060163;28;20042;-55
2022/08/26 07:14:54;;;;;;;12.77;11.63;;;15.10;99.90;;;;;;5068805;28;20045;-55
2022/08/26 07:17:23;;;;;;;13.57;12.27;;;15.10;99.90;;;;;;5058476;28;20048;-56
2022/08/26 07:19:50;;;;;;;13.45;12.10;;;15.20;99.90;;;;;;5064749;28;20032;-53
2022/08/26 07:22:18;;;;;;;16.38;13.32;;;15.20;99.90;;;;;;5066534;28;20036;-54
2022/08/26 07:24:45;;;;;;;16.85;14.77;;;15.30;99.90;;;;;;5067580;28;20045;-56
2022/08/26 07:27:11;;;;;;;17.63;15.82;;;15.30;99.90;;;;;;5058734;28;20468;-54
2022/08/26 07:29:38;;;;;;;17.38;15.52;;;15.30;99.90;;;;;;5071850;28;20036;-57
2022/08/26 07:32:05;;;;;;;14.63;13.10;;;15.30;99.90;;;;;;5056392;28;20124;-55
2022/08/26 07:34:32;;;;;;;16.58;14.88;;;15.40;99.90;;;;;;5057429;28;20045;-53
2022/08/26 07:36:59;;;;;;;16.65;14.68;;;15.50;99.90;;;;;;5067152;28;20087;-57
2022/08/26 07:39:26;;;;;;;15.90;14.20;;;15.50;99.90;;;;;;5066518;28;20044;-51
2022/08/26 07:41:53;;;;;;;18.52;15.50;;;15.60;99.90;;;;;;5074065;28;20052;-51
2022/08/26 07:44:20;;;;;;;18.00;16.08;;;15.60;99.90;;;;;;5056560;28;20061;-50
2022/08/26 07:46:47;;;;;;;16.50;14.45;;;15.60;99.90;;;;;;5056503;28;20365;-51
2022/08/26 07:49:18;;;;;;;16.10;14.05;;;15.60;99.90;;;;;;5056389;28;20099;-55
2022/08/26 07:51:45;;;;;;;16.40;14.70;;;15.70;99.90;;;;;;5055989;28;20044;-54
2022/08/26 07:54:12;;;;;;;16.73;14.65;;;15.80;99.90;;;;;;5058195;28;20041;-52
2022/08/26 07:56:39;;;;;;;16.17;14.30;;;15.80;99.90;;;;;;5062124;28;20048;-54
2022/08/26 07:59:09;;;;;;;17.38;13.40;;;15.90;99.90;;;;;;5062468;28;20094;-51
2022/08/26 08:01:39;;;;;;;13.70;12.30;;;15.90;99.90;;;;;;5070078;28;20037;-52
2022/08/26 08:04:10;;;;;;;13.93;12.10;;;15.90;99.90;;;;;;5065245;28;20475;-51
2022/08/26 08:06:39;;;;;;;14.52;12.98;;;16.00;99.90;;;;;;5061403;28;20041;-53
2022/08/26 08:09:06;;;;;;;14.85;11.45;;;16.00;99.90;;;;;;5071771;28;20055;-54
2022/08/26 08:11:32;;;;;;;14.90;12.32;;;16.10;99.90;;;;;;5069101;28;20048;-54
2022/08/26 08:14:00;;;;;;;16.25;12.35;;;16.20;99.90;;;;;;5065934;28;20033;-51
2022/08/26 08:16:27;;;;;;;18.00;12.13;;;16.20;99.90;;;;;;5057333;28;20068;-49
2022/08/26 08:18:57;;;;;;;17.63;12.50;;;16.30;99.90;;;;;;5057517;28;20052;-53
2022/08/26 08:21:25;;;;;;;17.35;11.77;;;16.40;99.90;;;;;;5065162;28;20140;-54
2022/08/26 08:23:52;;;;;;;11.73;8.90;;;16.40;99.90;;;;;;5055380;28;20041;-53
2022/08/26 08:26:19;;;;;;;10.13;7.97;;;16.50;99.90;;;;;;5058327;28;20052;-53
2022/08/26 08:28:46;;;;;;;10.65;7.60;;;16.50;99.90;;;;;;5064774;28;20029;-52
2022/08/26 08:31:13;;;;;;;13.23;7.45;;;16.60;99.90;;;;;;5061898;28;20114;-53
2022/08/26 08:33:40;;;;;;;11.02;7.30;;;16.70;99.90;;;;;;5074324;28;20041;-53
2022/08/26 08:36:08;;;;;;;10.05;6.30;;;16.70;99.90;;;;;;5074734;28;20380;-52
2022/08/26 08:38:44;;;;;;;10.23;6.68;;;16.80;99.90;;;;;;5062147;28;20581;-52
2022/08/26 08:41:10;;;;;;;12.25;5.82;;;16.80;99.90;;;;;;5054962;28;20045;-53
2022/08/26 08:43:38;;;;;;;7.70;5.50;;;16.90;99.90;;;;;;5055574;28;20045;-52
2022/08/26 08:46:05;;;;;;;9.70;5.80;;;16.90;99.90;;;;;;5055149;28;20091;-50
2022/08/26 08:48:32;;;;;;;10.13;4.65;;;16.90;99.90;;;;;;5054308;28;20147;-52
2022/08/26 08:50:58;;;;;;;7.40;4.50;;;17.00;99.90;;;;;;5066221;28;20045;-56
2022/08/26 08:53:25;;;;;;;9.70;5.10;;;17.00;99.90;;;;;;5067329;28;20048;-52
2022/08/26 08:55:52;;;;;;;7.53;4.30;;;17.10;99.90;;;;;;5073727;28;20442;-51
2022/08/26 08:58:19;;;;;;;10.05;4.00;;;17.10;99.90;;;;;;5073775;28;20495;-52
2022/08/26 09:00:46;;;;;;;7.80;3.13;;;17.10;99.90;;;;;;5073539;28;20079;-51
2022/08/26 09:03:13;;;;;;;6.53;2.50;;;17.20;99.90;;;;;;5064995;28;20207;-54
2022/08/26 09:05:40;;;;;;;7.72;2.67;;;17.30;99.90;;;;;;5053048;28;20430;-52
2022/08/26 09:08:14;;;;;;;8.32;4.38;;;17.30;99.90;;;;;;5057277;28;20067;-52
2022/08/26 09:10:40;;;;;;;11.90;3.13;;;17.40;99.90;;;;;;5069072;28;20086;-54
2022/08/26 09:13:08;;;;;;;6.22;3.28;;;17.50;99.90;;;;;;5060254;28;20047;-52
2022/08/26 09:15:39;;;;;;;9.95;3.35;;;17.50;99.90;;;;;;5056627;28;20059;-56
2022/08/26 09:18:07;;;;;;;7.57;3.53;;;17.60;99.90;;;;;;5058683;28;20041;-54
2022/08/26 09:20:36;;;;;;;8.88;3.10;;;17.60;99.90;;;;;;5056357;28;20127;-53
2022/08/26 09:23:04;;;;;;;7.53;3.22;;;17.60;99.90;;;;;;5059136;28;20094;-55
2022/08/26 09:25:33;;;;;;;8.98;2.80;;;17.70;99.90;;;;;;5053587;28;20049;-53
2022/08/26 09:28:00;;;;;;;6.82;3.10;;;17.70;99.90;;;;;;5053653;28;20037;-51
2022/08/26 09:30:29;;;;;;;6.28;2.67;;;17.90;99.90;;;;;;5056459;28;20039;-50
2022/08/26 09:32:56;;;;;;;9.80;3.20;;;18.00;99.90;;;;;;5057699;28;20408;-52
2022/08/26 09:35:24;;;;;;;9.05;3.30;;;18.10;99.90;;;;;;5061568;28;20040;-56
2022/08/26 09:37:51;;;;;;;6.13;3.15;;;18.10;99.90;;;;;;5059158;28;20033;-56
2022/08/26 09:40:18;;;;;;;7.22;3.03;;;18.20;99.90;;;;;;5064654;28;20045;-52
2022/08/26 09:42:46;;;;;;;8.80;3.40;;;18.20;99.90;;;;;;5062636;28;20041;-51
2022/08/26 09:45:14;;;;;;;9.15;3.03;;;18.20;99.90;;;;;;5060331;28;20037;-57
2022/08/26 09:47:42;;;;;;;6.95;3.20;;;18.20;99.90;;;;;;5060018;28;20115;-56
2022/08/26 09:50:10;;;;;;;5.88;3.10;;;18.20;99.90;;;;;;5058260;28;20114;-55
2022/08/26 09:52:38;;;;;;;7.93;3.40;;;18.30;99.90;;;;;;5059602;28;20033;-56
2022/08/26 09:55:08;;;;;;;7.10;3.38;;;18.30;99.90;;;;;;5055478;28;20040;-53
2022/08/26 09:57:34;;;;;;;6.18;3.55;;;18.40;99.90;;;;;;5051719;28;20099;-54
2022/08/26 10:00:02;;;;;;;12.77;3.22;;;18.50;99.90;;;;;;5052436;28;20067;-57
2022/08/26 10:02:37;;;;;;;10.63;3.90;;;18.50;99.90;;;;;;5060381;28;20424;-53
2022/08/26 10:05:05;;;;;;;6.65;3.15;;;18.50;99.90;;;;;;5053273;28;20041;-54
2022/08/26 10:07:35;;;;;;;7.35;2.65;;;18.50;99.90;;;;;;5064234;28;20106;-53
2022/08/26 10:10:03;;;;;;;6.28;2.67;;;18.60;99.90;;;;;;5071451;28;20040;-53
2022/08/26 10:12:30;;;;;;;10.15;2.75;;;18.70;99.90;;;;;;5058657;28;20445;-54
2022/08/26 10:14:56;;;;;;;9.32;3.10;;;18.70;99.70;;;;;;5055193;28;20048;-52
2022/08/26 10:17:23;;;;;;;9.40;3.08;;;18.70;99.80;;;;;;5053150;28;20045;-53
2022/08/26 10:19:50;;;;;;;6.95;2.65;;;18.80;99.10;;;;;;5055564;28;20044;-52
2022/08/26 10:22:23;;;;;;;10.18;2.72;;;18.80;99.00;;;;;;5051154;28;20048;-56
2022/08/26 10:24:49;;;;;;;9.27;2.60;;;18.80;97.90;;;;;;5056377;28;20459;-55
2022/08/26 10:27:20;;;;;;;9.18;2.25;;;18.90;98.50;;;;;;5056194;28;20628;-53
2022/08/26 10:29:47;;;;;;;7.93;2.78;;;18.90;98.00;;;;;;5063222;28;20037;-52
2022/08/26 10:32:14;;;;;;;7.13;2.63;;;18.90;98.70;;;;;;5054754;28;20397;-54
2022/08/26 10:34:41;;;;;;;9.93;2.83;;;19.00;99.50;;;;;;5054644;28;20057;-58
2022/08/26 10:37:08;;;;;;;9.00;3.15;;;19.20;99.70;;;;;;5055755;28;20041;-53
2022/08/26 10:39:41;;;;;;;6.85;2.70;;;19.20;99.10;;;;;;5074941;28;20036;-53
2022/08/26 10:42:08;;;;;;;7.75;2.88;;;19.30;98.80;;;;;;5065067;28;20049;-55
2022/08/26 10:44:37;;;;;;;6.10;2.42;;;19.40;98.60;;;;;;5058021;28;20045;-56
2022/08/26 10:47:06;;;;;;;7.72;2.17;;;19.40;98.40;;;;;;5058784;28;20108;-52
2022/08/26 10:49:33;;;;;;;6.55;2.25;;;19.50;96.60;;;;;;5064008;28;20079;-56
2022/08/26 10:52:01;;;;;;;7.95;2.58;;;19.60;97.20;;;;;;5039779;28;20037;-56
2022/08/26 10:54:28;;;;;;;6.20;2.45;;;19.60;96.40;;;;;;5052127;28;20522;-54
2022/08/26 10:56:55;;;;;;;7.47;2.58;;;19.70;96.60;;;;;;5059912;28;20079;-53
2022/08/26 10:59:22;;;;;;;6.10;2.38;;;19.70;96.80;;;;;;5052783;28;20041;-55
2022/08/26 11:01:51;;;;;;;6.72;2.13;;;19.80;97.20;;;;;;5061568;28;20049;-54
2022/08/26 11:04:18;;;;;;;6.10;2.50;;;19.90;96.40;;;;;;5053838;28;20044;-55
2022/08/26 11:06:47;;;;;;;8.90;2.95;;;20.00;96.20;;;;;;5052791;28;20037;-54
2022/08/26 11:09:14;;;;;;;8.00;2.70;;;20.10;95.60;;;;;;5055121;28;20124;-55
2022/08/26 11:11:44;;;;;;;8.20;2.70;;;20.30;94.60;;;;;;5043915;28;20167;-56
2022/08/26 11:14:12;;;;;;;6.03;2.47;;;20.40;93.60;;;;;;5059200;28;20430;-53
2022/08/26 11:16:39;;;;;;;6.32;2.25;;;20.50;94.00;;;;;;5061686;28;20044;-53
2022/08/26 11:19:09;;;;;;;7.72;2.53;;;20.60;95.40;;;;;;5061719;28;20041;-50
2022/08/26 11:21:36;;;;;;;6.40;2.65;;;20.60;93.30;;;;;;5064966;28;20146;-54
2022/08/26 11:24:02;;;;;;;10.43;2.83;;;20.70;92.70;;;;;;5057754;28;20112;-55
2022/08/26 11:26:30;;;;;;;6.35;2.65;;;20.70;93.30;;;;;;5061738;28;20439;-53
2022/08/26 11:29:17;;;;;;;5.70;2.20;;;20.80;92.70;;;;;;5060412;28;20064;-54
2022/08/26 11:31:45;;;;;;;8.05;2.70;;;20.80;93.00;;;;;;5060978;28;20052;-57
2022/08/26 11:34:12;;;;;;;8.80;2.97;;;20.80;92.10;;;;;;5053082;28;20124;-56
2022/08/26 11:36:39;;;;;;;6.63;2.40;;;20.70;92.90;;;;;;5060194;28;20529;-55
2022/08/26 11:39:05;;;;;;;7.95;2.30;;;20.70;93.30;;;;;;5056120;28;20499;-54
2022/08/26 11:41:32;;;;;;;3.63;2.08;;;20.70;93.40;;;;;;5060873;28;20136;-54
2022/08/26 11:44:01;;;;;;;5.00;1.88;;;20.70;92.70;;;;;;5058149;28;20116;-56
2022/08/26 11:46:29;;;;;;;8.43;2.40;;;20.60;92.20;;;;;;5060866;28;20112;-54
2022/08/26 11:48:55;;;;;;;7.47;2.35;;;20.60;92.70;;;;;;5067674;28;20070;-55
2022/08/26 11:51:22;;;;;;;8.77;2.53;;;20.60;93.10;;;;;;5063703;28;20028;-54
2022/08/26 11:53:49;;;;;;;5.97;2.20;;;20.60;92.20;;;;;;5058858;28;20037;-54
2022/08/26 11:56:16;;;;;;;5.20;2.15;;;20.60;92.60;;;;;;5061322;28;20112;-55
2022/08/26 11:58:46;;;;;;;7.93;2.10;;;20.60;92.70;;;;;;5057516;28;20041;-57
2022/08/26 12:01:13;;;;;;;9.60;2.60;;;20.60;92.60;;;;;;5061894;28;20052;-52
2022/08/26 12:03:42;;;;;;;7.07;2.17;;;20.60;93.30;;;;;;5064210;28;20044;-56
2022/08/26 12:06:10;;;;;;;7.10;2.30;;;20.50;92.50;;;;;;5061253;28;20052;-52
2022/08/26 12:08:41;;;;;;;7.45;2.40;;;20.50;92.40;;;;;;5061969;28;20094;-54
2022/08/26 12:11:08;;;;;;;5.47;2.20;;;20.50;93.00;;;;;;5062240;28;20450;-54
2022/08/26 12:13:37;;;;;;;6.50;2.00;;;20.50;92.90;;;;;;5057481;28;20049;-55
2022/08/26 12:16:04;;;;;;;6.50;2.35;;;20.50;92.90;;;;;;5058687;28;20388;-52
2022/08/26 12:18:31;;;;;;;5.45;2.45;;;20.50;93.00;;;;;;5059876;28;20380;-53
2022/08/26 12:20:59;;;;;;;7.53;2.53;;;20.60;92.90;;;;;;5059200;28;20033;-52
2022/08/26 12:23:26;;;;;;;6.57;2.50;;;20.70;93.00;;;;;;5060329;28;20044;-53
2022/08/26 12:25:52;;;;;;;5.47;2.45;;;20.70;92.80;;;;;;5060480;28;20091;-57
2022/08/26 12:28:20;;;;;;;6.38;2.13;;;20.80;92.50;;;;;;5064088;28;20039;-53
2022/08/26 12:30:48;;;;;;;6.75;2.42;;;20.80;91.80;;;;;;5063358;28;20037;-55
2022/08/26 12:33:15;;;;;;;5.00;2.33;;;20.90;92.80;;;;;;5055924;28;20044;-56
2022/08/26 12:35:48;;;;;;;7.40;2.05;;;21.00;92.80;;;;;;5056148;28;20047;-57
2022/08/26 12:38:20;;;;;;;5.90;2.22;;;21.00;91.80;;;;;;5062560;28;20434;-57
2022/08/26 12:40:48;;;;;;;7.25;2.17;;;21.10;91.30;;;;;;5065946;28;20041;-55
2022/08/26 12:43:16;;;;;;;5.25;2.00;;;21.20;91.30;;;;;;5070353;28;20064;-55
2022/08/26 12:45:45;;;;;;;7.22;2.10;;;21.40;91.50;;;;;;5065951;28;20456;-55